Pearland, Texas
Current Conditions -  °F | °C
As of 8:53 PM on Saturday 25 Oct 2014 (Local Time) from KLVJ Reporting Station
Clear Clear  
Wind Chill: 67°   Ceiling: Unl
Heat Index: 67°   Visibility: 10mi
Dew Point: 59°   Wind: 0mph
Humidity: 76%   Direction: NA
Pressure: 30.12"   Gusts: NA
Location:  29.55°N, 95.26°W
Report Text: KLVJ 260153Z AUTO 00000KT 10SM CLR 19/15 A3012 RMK AO2 SLP199 T01940150
Loading
Personal Weather Stations






























Interactive Weather Map
Tropical Storm Tracking
New forecast layout! Learn more

10-Day Weather Forecast

Advertisements
Track Severe Weather on mobile